Time;durP1;ratioP1;P1;durP2;ratioP2;P2;SDS_P1;SDS_P2;PMS_P1;PMS_P2;Temp;Humidity;BMP_temperature;BMP_pressure;BME280_temperature;BME280_humidity;BME280_pressure;Samples;Min_cycle;Max_cycle;Signal;HPM_P1;HPM_P2
2021/03/23 00:01:47;;;;;;;1.53;1.43;;;;;;;1.30;100.00;99026.05;1783244;80;21370;-73
2021/03/23 00:04:16;;;;;;;1.90;1.43;;;;;;;1.23;100.00;99030.23;1783024;80;21048;-71
2021/03/23 00:06:44;;;;;;;2.77;2.13;;;;;;;1.18;100.00;99030.30;1783304;79;21508;-72
2021/03/23 00:09:11;;;;;;;4.27;2.87;;;;;;;1.13;100.00;99032.89;1783278;80;20961;-74
2021/03/23 00:11:41;;;;;;;2.20;1.63;;;;;;;1.08;100.00;99028.45;1783247;80;21578;-73
2021/03/23 00:14:12;;;;;;;4.43;2.80;;;;;;;1.03;100.00;99038.66;1783184;80;21365;-73
2021/03/23 00:16:43;;;;;;;3.97;2.27;;;;;;;0.95;100.00;99030.00;1783134;80;21001;-73
2021/03/23 00:19:13;;;;;;;4.87;2.80;;;;;;;0.91;100.00;99031.75;1783216;80;21009;-73
2021/03/23 00:21:42;;;;;;;3.90;2.77;;;;;;;0.84;100.00;99034.59;1783213;80;20989;-74
2021/03/23 00:24:11;;;;;;;3.67;2.17;;;;;;;0.77;100.00;99027.63;1783318;80;21005;-73
2021/03/23 00:26:41;;;;;;;2.07;1.87;;;;;;;0.71;100.00;99018.86;1783173;80;21356;-73
2021/03/23 00:29:11;;;;;;;4.73;2.17;;;;;;;0.66;100.00;99027.23;1783105;80;20973;-73
2021/03/23 00:31:39;;;;;;;4.93;2.73;;;;;;;0.62;100.00;99031.14;1753343;80;21023;-73
2021/03/23 00:34:08;;;;;;;4.50;2.80;;;;;;;0.60;100.00;99032.23;1783013;79;21657;-73
2021/03/23 00:36:39;;;;;;;2.47;1.67;;;;;;;0.55;100.00;99029.98;1783238;80;21021;-72
2021/03/23 00:39:10;;;;;;;1.62;1.52;;;;;;;0.48;100.00;99028.33;1739600;82;22093;-72
2021/03/23 00:41:40;;;;;;;1.77;1.67;;;;;;;0.46;100.00;99030.75;1766502;81;21600;-73
2021/03/23 00:44:10;;;;;;;1.00;1.00;;;;;;;0.45;100.00;99030.41;1759262;81;20989;-73
2021/03/23 00:46:38;;;;;;;7.27;3.53;;;;;;;0.42;100.00;99029.34;1738933;80;21156;-73
2021/03/23 00:49:06;;;;;;;6.37;3.03;;;;;;;0.39;100.00;99027.80;1731289;82;21097;-73
2021/03/23 00:51:34;;;;;;;6.80;2.90;;;;;;;0.35;100.00;99017.91;1731340;82;21251;-74
2021/03/23 00:54:03;;;;;;;2.30;1.30;;;;;;;0.33;100.00;99017.17;1731301;82;20994;-74
2021/03/23 00:56:32;;;;;;;4.33;1.97;;;;;;;0.32;100.00;99013.30;1731212;82;21717;-73
2021/03/23 00:59:00;;;;;;;2.03;1.43;;;;;;;0.31;100.00;99012.47;1731316;82;21030;-73
2021/03/23 01:01:27;;;;;;;1.80;0.97;;;;;;;0.28;100.00;99009.23;1731324;81;21738;-73
2021/03/23 01:03:57;;;;;;;3.17;2.43;;;;;;;0.25;100.00;99009.02;1727851;82;21896;-73
2021/03/23 01:06:26;;;;;;;1.40;1.10;;;;;;;0.23;100.00;99010.11;1731414;82;21089;-72
2021/03/23 01:08:54;;;;;;;1.37;1.27;;;;;;;0.19;100.00;99018.83;1731330;82;21658;-72
2021/03/23 01:11:22;;;;;;;1.83;1.20;;;;;;;0.16;100.00;99015.09;1731286;82;20974;-73
2021/03/23 01:13:51;;;;;;;2.07;1.67;;;;;;;0.13;100.00;99014.88;1731485;82;20978;-73
2021/03/23 01:16:19;;;;;;;3.43;3.10;;;;;;;0.11;100.00;99012.02;1731334;82;21393;-73
2021/03/23 01:18:47;;;;;;;2.17;1.97;;;;;;;0.12;100.00;99011.02;1731255;82;20978;-73
2021/03/23 01:21:15;;;;;;;5.57;3.07;;;;;;;0.13;100.00;99014.05;1731415;82;21041;-72
2021/03/23 01:23:42;;;;;;;3.47;2.30;;;;;;;0.10;100.00;99004.50;1731357;82;21129;-72
2021/03/23 01:26:10;;;;;;;5.00;2.53;;;;;;;0.09;100.00;99004.16;1731617;82;21137;-72
2021/03/23 01:28:38;;;;;;;14.53;4.40;;;;;;;0.10;100.00;99005.00;1731586;82;21219;-72
2021/03/23 01:31:06;;;;;;;3.20;1.47;;;;;;;0.10;100.00;99002.34;1730613;82;21181;-72
2021/03/23 01:33:34;;;;;;;2.03;1.90;;;;;;;0.09;100.00;98997.52;1731595;82;21091;-72
2021/03/23 01:36:04;;;;;;;3.00;2.43;;;;;;;0.08;100.00;98998.48;1753290;80;21046;-72
2021/03/23 01:38:32;;;;;;;4.27;2.87;;;;;;;0.08;100.00;98998.97;1771091;81;20981;-73
2021/03/23 01:41:00;;;;;;;1.17;1.17;;;;;;;0.07;100.00;99000.80;1741285;81;22145;-72
2021/03/23 01:43:32;;;;;;;2.63;2.43;;;;;;;0.05;100.00;98995.23;1771251;81;21020;-72
2021/03/23 01:46:01;;;;;;;3.00;2.53;;;;;;;0.00;100.00;98999.62;1774080;80;21029;-74
2021/03/23 01:48:32;;;;;;;5.90;3.20;;;;;;;-0.06;100.00;98995.65;1773202;79;20980;-72
2021/03/23 01:51:05;;;;;;;1.95;1.42;;;;;;;-0.08;100.00;98995.44;1801150;79;20981;-72
2021/03/23 01:53:46;;;;;;;2.40;2.20;;;;;;;-0.10;100.00;98994.72;1733070;82;21891;-72
2021/03/23 01:56:15;;;;;;;2.43;1.83;;;;;;;-0.11;100.00;99001.00;1711305;83;21726;-72
2021/03/23 01:58:46;;;;;;;2.97;1.77;;;;;;;-0.11;100.00;98993.86;1778031;80;21187;-73
2021/03/23 02:01:15;;;;;;;1.73;1.33;;;;;;;-0.09;100.00;98995.93;1778210;80;21173;-72
2021/03/23 02:03:44;;;;;;;0.70;0.70;;;;;;;-0.09;100.00;98994.59;1778280;80;21566;-72
2021/03/23 02:06:42;;;;;;;1.13;1.10;;;;;;;-0.08;100.00;98990.95;1778166;80;21586;-72
2021/03/23 02:09:28;;;;;;;3.73;1.47;;;;;;;-0.09;100.00;98986.63;1778033;80;21044;-73
2021/03/23 02:12:03;;;;;;;1.60;0.60;;;;;;;-0.11;100.00;98991.20;1778188;80;21029;-72
2021/03/23 02:14:40;;;;;;;1.47;0.70;;;;;;;-0.09;100.00;98989.28;1845624;76;26587;-71
2021/03/23 02:17:29;;;;;;;3.10;1.83;;;;;;;-0.11;100.00;98996.52;1815669;77;21008;-72
2021/03/23 02:20:15;;;;;;;0.63;0.63;;;;;;;-0.09;100.00;98990.61;1815597;79;21093;-72
2021/03/23 02:22:49;;;;;;;1.63;1.53;;;;;;;-0.07;100.00;98990.00;1815499;79;21024;-73
2021/03/23 02:25:22;;;;;;;;;;;;;;;-0.04;100.00;98988.38;1818381;77;21020;-72
2021/03/23 02:27:51;;;;;;;3.10;2.47;;;;;;;-0.05;100.00;98982.73;1815513;78;20133;-72
2021/03/23 02:30:33;;;;;;;1.83;1.73;;;;;;;-0.05;100.00;98982.73;1815533;79;21004;-72
2021/03/23 02:33:01;;;;;;;3.23;1.57;;;;;;;-0.06;100.00;98978.87;1824415;78;21812;-72
2021/03/23 02:35:31;;;;;;;1.40;1.30;;;;;;;-0.06;100.00;98981.03;1825492;78;21008;-73
2021/03/23 02:37:59;;;;;;;1.30;1.07;;;;;;;-0.08;100.00;98977.66;1825648;78;21009;-74
2021/03/23 02:40:27;;;;;;;0.70;0.70;;;;;;;-0.10;100.00;98974.80;1822436;77;20873;-73
2021/03/23 02:42:56;;;;;;;1.07;1.03;;;;;;;-0.12;100.00;98970.94;1815588;79;20913;-73
2021/03/23 02:45:25;;;;;;;0.50;0.50;;;;;;;-0.11;100.00;98965.13;1808560;77;21801;-73
2021/03/23 02:47:52;;;;;;;0.40;0.40;;;;;;;-0.10;100.00;98972.97;1783206;80;21566;-73
2021/03/23 02:50:21;;;;;;;0.70;0.70;;;;;;;-0.10;100.00;98965.50;1784648;78;21060;-72
2021/03/23 02:52:48;;;;;;;1.83;1.47;;;;;;;-0.08;100.00;98957.73;1815489;79;21197;-71
2021/03/23 02:55:16;;;;;;;0.77;0.77;;;;;;;-0.07;100.00;98962.09;1815539;79;21024;-72
2021/03/23 02:57:44;;;;;;;2.00;1.63;;;;;;;-0.05;100.00;98953.99;1815471;79;22492;-72
2021/03/23 03:00:15;;;;;;;1.93;0.93;;;;;;;-0.05;100.00;98952.16;1815509;79;21020;-71
2021/03/23 03:02:43;;;;;;;0.73;0.73;;;;;;;-0.08;100.00;98949.77;1815449;79;20973;-71
2021/03/23 03:05:12;;;;;;;1.67;1.53;;;;;;;-0.11;100.00;98947.36;1815431;79;20961;-72
2021/03/23 03:07:45;;;;;;;4.07;2.97;;;;;;;-0.11;100.00;98951.34;1815454;77;21012;-72
2021/03/23 03:10:13;;;;;;;1.60;1.50;;;;;;;-0.11;100.00;98950.51;1815325;79;21261;-72
2021/03/23 03:12:41;;;;;;;10.40;3.70;;;;;;;-0.10;100.00;98954.86;1815273;78;21124;-71
2021/03/23 03:15:11;;;;;;;2.80;2.27;;;;;;;-0.11;100.00;98954.49;1815519;79;21498;-71
2021/03/23 03:17:40;;;;;;;5.53;2.97;;;;;;;-0.13;100.00;98953.29;1815424;77;21023;-71
2021/03/23 03:20:11;;;;;;;2.87;1.57;;;;;;;-0.12;100.00;98959.47;1815411;77;20984;-72
2021/03/23 03:22:39;;;;;;;7.63;3.87;;;;;;;-0.12;100.00;98960.80;1815478;79;21450;-71
2021/03/23 03:25:09;;;;;;;3.03;2.23;;;;;;;-0.12;100.00;98956.81;1815066;79;21474;-72
2021/03/23 03:27:37;;;;;;;12.50;5.33;;;;;;;-0.13;100.00;98956.45;1814941;79;21399;-72
2021/03/23 03:30:24;;;;;;;9.10;4.80;;;;;;;-0.15;100.00;98956.57;1814888;79;20980;-72
2021/03/23 03:32:52;;;;;;;11.53;7.00;;;;;;;-0.15;100.00;98959.72;1807925;79;21043;-73
2021/03/23 03:35:22;;;;;;;18.87;5.30;;;;;;;-0.16;100.00;98962.88;1814922;79;21412;-72
2021/03/23 03:37:51;;;;;;;12.63;6.83;;;;;;;-0.18;100.00;98960.80;1814912;79;20988;-72
2021/03/23 03:40:31;;;;;;;7.63;5.03;;;;;;;-0.18;100.00;98958.64;1827016;77;20981;-73
2021/03/23 03:43:06;;;;;;;11.83;6.05;;;;;;;-0.16;100.00;98960.22;1829696;76;27852;-73
2021/03/23 03:45:34;;;;;;;9.40;4.73;;;;;;;-0.17;100.00;98967.81;1806585;78;20992;-73
2021/03/23 03:48:03;;;;;;;8.30;4.13;;;;;;;-0.15;100.00;98970.34;1736173;82;21123;-72
2021/03/23 03:50:31;;;;;;;8.00;4.00;;;;;;;-0.16;100.00;98966.86;1741303;82;21016;-72
2021/03/23 03:53:01;;;;;;;10.73;5.47;;;;;;;-0.16;100.00;98972.17;1759104;81;21065;-73
2021/03/23 03:55:38;;;;;;;6.07;4.13;;;;;;;-0.16;100.00;98961.55;1735758;82;21302;-73
2021/03/23 03:58:07;;;;;;;5.27;4.03;;;;;;;-0.17;100.00;98971.80;1740687;82;20961;-72
2021/03/23 04:00:35;;;;;;;6.10;3.53;;;;;;;-0.18;100.00;98976.75;1741442;82;21434;-73
2021/03/23 04:03:08;;;;;;;4.37;3.00;;;;;;;-0.20;100.00;98980.86;1741078;81;21174;-72
2021/03/23 04:05:40;;;;;;;4.70;2.50;;;;;;;-0.24;100.00;98980.77;1756373;81;21005;-73
2021/03/23 04:08:10;;;;;;;7.60;4.00;;;;;;;-0.25;100.00;98988.40;1697725;82;21115;-73
2021/03/23 04:10:40;;;;;;;3.77;2.90;;;;;;;-0.24;100.00;98994.55;1751419;82;21024;-73
2021/03/23 04:13:08;;;;;;;4.90;3.50;;;;;;;-0.25;100.00;98991.05;1751529;82;21309;-72
2021/03/23 04:15:40;;;;;;;5.93;3.97;;;;;;;-0.24;100.00;99001.19;1751382;82;21020;-72
2021/03/23 04:18:09;;;;;;;2.83;2.63;;;;;;;-0.27;100.00;99001.44;1751380;82;21051;-73
2021/03/23 04:20:38;;;;;;;7.57;4.30;;;;;;;-0.28;100.00;99006.41;1751323;82;21190;-72
2021/03/23 04:23:08;;;;;;;6.43;3.73;;;;;;;-0.29;100.00;99007.36;1751290;82;21563;-73
2021/03/23 04:25:36;;;;;;;3.03;2.77;;;;;;;-0.31;100.00;99013.30;1751325;82;21447;-72
2021/03/23 04:28:04;;;;;;;2.53;2.20;;;;;;;-0.34;100.00;99010.88;1751297;82;21016;-73
2021/03/23 04:30:32;;;;;;;2.23;2.13;;;;;;;-0.36;100.00;99008.84;1751420;82;21113;-72
2021/03/23 04:33:00;;;;;;;6.77;2.90;;;;;;;-0.37;100.00;99016.44;1751229;82;21182;-72
2021/03/23 04:35:42;;;;;;;5.43;3.03;;;;;;;-0.40;100.00;99013.56;1751296;82;21020;-72
2021/03/23 04:38:23;;;;;;;5.90;2.07;;;;;;;-0.40;100.00;99014.41;1845528;76;26885;-71
2021/03/23 04:40:51;;;;;;;3.70;1.63;;;;;;;-0.43;100.00;99013.81;1815657;79;20987;-72
2021/03/23 04:43:27;;;;;;;7.90;3.90;;;;;;;-0.43;100.00;99018.63;1815596;77;21365;-74
2021/03/23 04:45:56;;;;;;;4.10;2.60;;;;;;;-0.42;100.00;99020.33;1794968;79;21031;-71
2021/03/23 04:48:24;;;;;;;9.53;4.80;;;;;;;-0.41;100.00;99023.82;1767421;79;20964;-72
2021/03/23 04:50:54;;;;;;;4.10;2.90;;;;;;;-0.41;100.00;99029.12;1736541;81;21012;-71
2021/03/23 04:53:30;;;;;;;3.37;1.90;;;;;;;-0.41;100.00;99031.33;1767694;81;20992;-72
2021/03/23 04:55:59;;;;;;;2.10;1.87;;;;;;;-0.41;100.00;99030.46;1767382;81;21244;-71
2021/03/23 04:58:29;;;;;;;4.53;3.60;;;;;;;-0.40;100.00;99033.48;1767457;81;20933;-72
2021/03/23 05:00:57;;;;;;;2.07;1.93;;;;;;;-0.39;100.00;99037.81;1767517;81;21040;-71
2021/03/23 05:03:31;;;;;;;2.43;2.30;;;;;;;-0.38;100.00;99032.87;1767576;81;20929;-71
2021/03/23 05:06:04;;;;;;;3.60;2.30;;;;;;;-0.36;100.00;99036.24;1767741;81;21173;-72
2021/03/23 05:08:33;;;;;;;6.42;2.33;;;;;;;-0.35;100.00;99034.42;1768447;79;21328;-71
2021/03/23 05:11:01;;;;;;;2.53;1.90;;;;;;;-0.35;100.00;99038.41;1769981;81;21490;-70
2021/03/23 05:13:30;;;;;;;3.33;3.03;;;;;;;-0.36;100.00;99044.20;1768413;81;21064;-72
2021/03/23 05:15:58;;;;;;;5.90;2.77;;;;;;;-0.36;100.00;99046.86;1767311;81;20953;-72
2021/03/23 05:18:26;;;;;;;6.73;3.13;;;;;;;-0.35;100.00;99045.05;1767584;81;21004;-71
2021/03/23 05:20:54;;;;;;;5.03;2.30;;;;;;;-0.35;100.00;99043.72;1767475;81;21382;-71
2021/03/23 05:23:22;;;;;;;2.33;2.20;;;;;;;-0.34;100.00;99053.38;1767525;81;21178;-71
2021/03/23 05:25:50;;;;;;;1.70;1.60;;;;;;;-0.33;100.00;99049.28;1767405;81;21016;-71
2021/03/23 05:28:20;;;;;;;3.73;2.77;;;;;;;-0.31;100.00;99047.34;1767296;81;21027;-71
2021/03/23 05:30:48;;;;;;;7.30;4.63;;;;;;;-0.29;100.00;99056.02;1767482;81;21585;-70
2021/03/23 05:33:17;;;;;;;11.23;5.27;;;;;;;-0.28;100.00;99055.55;1767375;81;22536;-72
2021/03/23 05:35:45;;;;;;;7.60;2.90;;;;;;;-0.27;100.00;99054.08;1767217;81;21032;-72
2021/03/23 05:38:13;;;;;;;7.00;4.03;;;;;;;-0.26;100.00;99060.25;1767592;78;21561;-71
2021/03/23 05:40:47;;;;;;;2.97;2.63;;;;;;;-0.25;100.00;99068.10;1786024;79;21163;-71
2021/03/23 05:43:39;;;;;;;8.10;3.63;;;;;;;-0.25;100.00;99072.09;1812548;79;21368;-71
2021/03/23 05:46:23;;;;;;;8.77;4.27;;;;;;;-0.21;100.00;99076.66;1810299;79;21262;-72
2021/03/23 05:49:19;;;;;;;4.77;3.30;;;;;;;-0.20;100.00;99075.67;1746929;81;21041;-71
2021/03/23 05:51:55;;;;;;;6.50;3.63;;;;;;;-0.20;100.00;99075.67;1767840;81;21421;-71
2021/03/23 05:54:39;;;;;;;4.20;3.13;;;;;;;-0.14;100.00;99073.86;1890697;76;26700;-70
2021/03/23 05:57:27;;;;;;;2.73;2.40;;;;;;;-0.13;100.00;99082.66;1861782;77;20927;-72
2021/03/23 05:59:59;;;;;;;3.27;2.93;;;;;;;-0.11;100.00;99083.38;1861714;77;21014;-72
2021/03/23 06:02:56;;;;;;;5.57;3.33;;;;;;;-0.07;100.00;99084.34;1861747;77;20994;-71
2021/03/23 06:05:45;;;;;;;4.67;2.73;;;;;;;-0.04;100.00;99086.72;1861526;77;20927;-72
2021/03/23 06:08:34;;;;;;;6.33;3.00;;;;;;;-0.03;100.00;99087.09;1861609;77;20998;-73
2021/03/23 06:11:34;;;;;;;11.83;5.53;;;;;;;-0.03;100.00;99100.38;1861928;77;21046;-76
2021/03/23 06:14:26;;;;;;;34.10;17.17;;;;;;;-0.06;100.00;99090.48;1862659;77;21811;-75
2021/03/23 06:17:18;;;;;;;39.87;17.93;;;;;;;-0.07;100.00;99094.97;1858643;77;21001;-77
2021/03/23 06:20:26;;;;;;;33.00;14.40;;;;;;;-0.07;100.00;99088.78;1853599;77;20997;-77
2021/03/23 06:23:25;;;;;;;65.87;28.83;;;;;;;-0.05;100.00;99097.01;1853293;76;20982;-76
2021/03/23 06:26:15;;;;;;;30.40;14.80;;;;;;;-0.04;100.00;99098.67;1853384;76;20934;-74
2021/03/23 06:29:23;;;;;;;18.33;8.73;;;;;;;-0.03;100.00;99098.22;1851325;77;21256;-76
2021/03/23 06:32:05;;;;;;;9.80;6.60;;;;;;;-0.02;100.00;99103.88;1777006;79;20956;-76
2021/03/23 06:34:36;;;;;;;7.22;5.55;;;;;;;-0.02;100.00;99104.73;1782298;80;21009;-76
2021/03/23 06:37:24;;;;;;;10.40;7.03;;;;;;;-0.01;100.00;99104.24;1766266;81;20976;-77
2021/03/23 06:39:52;;;;;;;7.67;4.00;;;;;;;-0.01;100.00;99098.92;1711029;83;21191;-77
2021/03/23 06:42:41;;;;;;;3.63;3.13;;;;;;;0.02;100.00;99104.46;1691310;85;21387;-76
2021/03/23 06:45:36;;;;;;;12.77;4.77;;;;;;;0.08;100.00;99104.80;1807442;79;26602;-75
2021/03/23 06:48:30;;;;;;;3.03;2.43;;;;;;;0.10;100.00;99106.84;1752640;82;21352;-75
2021/03/23 06:51:10;;;;;;;10.63;3.63;;;;;;;0.17;100.00;99108.52;1752002;81;20994;-75
2021/03/23 06:53:38;;;;;;;11.00;6.33;;;;;;;0.25;100.00;99107.87;1752151;80;21664;-76
2021/03/23 06:56:23;;;;;;;9.20;6.03;;;;;;;0.30;100.00;99117.63;1752318;81;20953;-73
2021/03/23 06:59:16;;;;;;;3.80;2.90;;;;;;;0.32;100.00;99111.70;1751020;82;21021;-72
2021/03/23 07:01:46;;;;;;;8.63;3.30;;;;;;;0.35;100.00;99123.41;1681346;84;21049;-72
2021/03/23 07:04:23;;;;;;;6.20;3.47;;;;;;;0.34;100.00;99123.91;1681085;85;21153;-72
2021/03/23 07:07:18;;;;;;;6.93;3.63;;;;;;;0.34;100.00;99121.25;1680937;85;21061;-72
2021/03/23 07:09:53;;;;;;;7.83;4.90;;;;;;;0.33;100.00;99128.86;1681123;85;20978;-74
2021/03/23 07:12:40;;;;;;;9.47;5.30;;;;;;;0.32;100.00;99135.17;1680850;85;21038;-72
2021/03/23 07:15:15;;;;;;;16.73;5.70;;;;;;;0.31;100.00;99137.45;1681041;85;21037;-72
2021/03/23 07:17:57;;;;;;;12.47;7.40;;;;;;;0.35;100.00;99131.39;1890483;76;26851;-72
2021/03/23 07:20:37;;;;;;;14.93;7.33;;;;;;;0.32;100.00;99132.97;1861110;77;21013;-72
2021/03/23 07:23:34;;;;;;;27.53;7.47;;;;;;;0.29;100.00;99130.59;1861239;77;21193;-73
2021/03/23 07:26:27;;;;;;;4.70;3.70;;;;;;;0.28;100.00;99134.20;1861025;77;20986;-71
2021/03/23 07:29:12;;;;;;;5.53;3.22;;;;;;;0.27;100.00;99133.38;1861373;77;20991;-74
2021/03/23 07:32:05;;;;;;;8.83;4.97;;;;;;;0.30;100.00;99130.47;1794445;79;20953;-74
2021/03/23 07:34:59;;;;;;;2.90;2.67;;;;;;;0.33;100.00;99126.20;1794401;80;20997;-71
2021/03/23 07:37:51;;;;;;;10.58;6.05;;;;;;;0.39;100.00;99135.51;1794514;80;21390;-69
2021/03/23 07:40:46;;;;;;;6.50;3.70;;;;;;;0.45;100.00;99130.98;1889943;76;26808;-71
2021/03/23 07:43:39;;;;;;;6.80;3.72;;;;;;;0.46;100.00;99139.34;1861225;77;20895;-72
2021/03/23 07:46:16;;;;;;;19.33;8.13;;;;;;;0.52;100.00;99137.97;1859294;76;21354;-72
2021/03/23 07:48:50;;;;;;;10.60;4.57;;;;;;;0.51;100.00;99137.60;1860541;77;21022;-71
2021/03/23 07:51:29;;;;;;;13.93;8.13;;;;;;;0.48;100.00;99145.37;1710650;82;21197;-71
2021/03/23 07:54:30;;;;;;;14.73;7.53;;;;;;;0.48;100.00;99138.72;1707245;81;21061;-70
2021/03/23 07:57:31;;;;;;;6.77;3.83;;;;;;;0.59;100.00;99139.14;1849530;76;26608;-71
2021/03/23 08:00:13;;;;;;;9.53;4.47;;;;;;;0.64;100.00;99138.27;1753395;80;21048;-70
2021/03/23 08:03:10;;;;;;;20.33;12.20;;;;;;;0.73;100.00;99134.82;1725982;81;21271;-70
2021/03/23 08:06:38;;;;;;;5.10;3.47;;;;;;;0.81;100.00;99139.98;1736612;82;21123;-71
2021/03/23 08:09:32;;;;;;;5.37;3.43;;;;;;;0.87;100.00;99134.14;1749263;81;21543;-70
2021/03/23 08:12:43;;;;;;;14.20;5.33;;;;;;;0.99;100.00;99129.56;1727200;81;21015;-72
2021/03/23 08:15:35;;;;;;;3.77;2.43;;;;;;;1.13;100.00;99128.75;1731841;82;20961;-69
2021/03/23 08:18:31;;;;;;;3.40;2.93;;;;;;;1.25;100.00;99120.66;1736830;82;21682;-71
2021/03/23 08:21:34;;;;;;;5.80;3.70;;;;;;;1.43;100.00;99120.86;1740849;82;21203;-71
2021/03/23 08:24:35;;;;;;;5.03;3.03;;;;;;;1.51;100.00;99124.53;1740520;81;21013;-70
2021/03/23 08:27:19;;;;;;;10.67;4.80;;;;;;;1.59;100.00;99110.52;1823218;76;27161;-71
2021/03/23 08:30:25;;;;;;;6.80;3.70;;;;;;;1.64;100.00;99115.45;1805983;79;20972;-70
2021/03/23 08:33:04;;;;;;;6.47;3.40;;;;;;;1.71;100.00;99115.25;1814007;78;21648;-74
2021/03/23 08:35:57;;;;;;;6.00;2.67;;;;;;;1.79;100.00;99113.22;1741748;82;20964;-73
2021/03/23 08:38:54;;;;;;;7.90;4.60;;;;;;;2.03;100.00;99106.17;1668514;86;20973;-73
2021/03/23 08:41:50;;;;;;;7.23;3.33;;;;;;;2.32;100.00;99108.00;1746291;82;21032;-73
2021/03/23 08:44:36;;;;;;;2.17;2.00;;;;;;;2.53;100.00;99104.67;1739003;82;21109;-72
2021/03/23 08:47:39;;;;;;;6.20;2.87;;;;;;;2.83;100.00;99099.66;1740127;80;21264;-73
2021/03/23 08:50:19;;;;;;;7.33;2.93;;;;;;;3.36;100.00;99108.03;1729691;82;21166;-73
2021/03/23 08:52:50;;;;;;;3.10;2.27;;;;;;;3.80;100.00;99110.38;1726402;82;21565;-74
2021/03/23 08:55:34;;;;;;;5.62;3.00;;;;;;;4.05;100.00;99097.77;1735857;82;21112;-73
2021/03/23 08:58:14;;;;;;;4.53;3.50;;;;;;;4.18;100.00;99099.59;1732708;82;21640;-72
2021/03/23 09:01:33;;;;;;;4.27;2.10;;;;;;;4.36;100.00;99096.89;1834072;76;26563;-73
2021/03/23 09:04:13;;;;;;;3.63;2.13;;;;;;;4.36;100.00;99101.74;1662397;84;21120;-72
2021/03/23 09:06:57;;;;;;;10.67;4.57;;;;;;;4.36;100.00;99088.86;1715372;82;21358;-72
2021/03/23 09:09:41;;;;;;;2.08;1.47;;;;;;;4.43;100.00;99081.06;1715644;82;21003;-72
2021/03/23 09:12:42;;;;;;;2.73;1.97;;;;;;;4.63;100.00;99073.67;1733349;82;20936;-73
2021/03/23 09:15:16;;;;;;;6.87;2.73;;;;;;;4.83;100.00;99070.28;1674442;85;21074;-71
2021/03/23 09:18:27;;;;;;;2.90;1.87;;;;;;;5.06;100.00;99078.62;1711727;82;21560;-70
2021/03/23 09:21:09;;;;;;;3.67;2.57;;;;;;;5.06;100.00;99085.31;1691080;84;21455;-73
2021/03/23 09:23:45;;;;;;;1.57;1.23;;;;;;;4.94;100.00;99073.55;1827827;76;26980;-71
2021/03/23 09:26:35;;;;;;;2.57;2.20;;;;;;;4.80;100.00;99077.28;1788734;79;20984;-74
2021/03/23 09:29:30;;;;;;;7.00;2.93;;;;;;;4.59;100.00;99077.67;1732693;80;22120;-75
2021/03/23 09:32:06;;;;;;;2.62;1.50;;;;;;;4.49;100.00;99074.56;1709866;83;21112;-73
2021/03/23 09:35:12;;;;;;;2.00;1.80;;;;;;;4.55;100.00;99070.42;1891097;74;26711;-73
2021/03/23 09:37:59;;;;;;;6.57;3.37;;;;;;;4.56;100.00;99070.27;1779919;80;21057;-74
2021/03/23 09:40:37;;;;;;;8.10;4.23;;;;;;;4.78;100.00;99066.75;1805335;79;21210;-74
2021/03/23 09:43:31;;;;;;;3.37;2.80;;;;;;;4.90;100.00;99078.02;1803276;79;21236;-76
2021/03/23 09:46:49;;;;;;;4.80;3.43;;;;;;;4.82;100.00;99080.16;1865147;75;26710;-75
2021/03/23 09:49:44;;;;;;;4.80;3.43;;;;;;;4.58;100.00;99081.33;1828334;77;21050;-76
2021/03/23 09:52:22;;;;;;;3.23;2.23;;;;;;;4.34;100.00;99074.30;1792712;78;21261;-79
2021/03/23 09:54:57;;;;;;;1.40;1.30;;;;;;;4.53;100.00;99073.75;1748045;80;21028;-77
2021/03/23 09:57:30;;;;;;;3.77;2.43;;;;;;;4.88;100.00;99075.50;1779035;80;21658;-78
2021/03/23 10:00:01;;;;;;;1.93;1.03;;;;;;;5.26;100.00;99077.39;1773478;79;20988;-77
2021/03/23 10:02:34;;;;;;;3.77;2.50;;;;;;;5.47;100.00;99070.28;1784541;79;20993;-73
2021/03/23 10:05:22;;;;;;;3.03;2.50;;;;;;;5.43;100.00;99072.92;1769063;79;21502;-74
2021/03/23 10:07:53;;;;;;;3.80;2.63;;;;;;;5.26;100.00;99073.38;1774561;79;21142;-68
2021/03/23 10:10:34;;;;;;;1.73;1.07;;;;;;;5.00;100.00;99080.10;1766069;81;21032;-72
2021/03/23 10:13:28;;;;;;;2.57;1.10;;;;;;;4.69;100.00;99085.08;1766257;81;21052;-70
2021/03/23 10:16:05;;;;;;;2.90;2.60;;;;;;;4.34;100.00;99082.33;1766279;81;21587;-71
2021/03/23 10:18:39;;;;;;;2.73;2.27;;;;;;;4.17;100.00;99077.31;1761892;81;21523;-71
2021/03/23 10:21:13;;;;;;;4.23;2.83;;;;;;;4.11;100.00;99070.42;1766248;81;21017;-71
2021/03/23 10:23:45;;;;;;;8.93;5.23;;;;;;;4.27;100.00;99062.53;1766270;81;21033;-72
2021/03/23 10:26:14;;;;;;;4.73;2.03;;;;;;;4.78;100.00;99064.08;1732256;81;21092;-73
2021/03/23 10:28:49;;;;;;;5.17;2.90;;;;;;;5.23;100.00;99062.97;1758966;81;21008;-74
2021/03/23 10:31:39;;;;;;;6.57;2.57;;;;;;;5.39;100.00;99053.33;1760675;81;22195;-75
2021/03/23 10:34:29;;;;;;;8.00;2.77;;;;;;;5.21;98.42;99060.95;1852307;76;26619;-74
2021/03/23 10:37:04;;;;;;;2.62;2.27;;;;;;;4.91;93.97;99068.49;1783735;80;21010;-72
2021/03/23 10:39:37;;;;;;;5.37;2.87;;;;;;;4.56;91.83;99074.79;1815392;78;21189;-71
2021/03/23 10:42:29;;;;;;;6.93;2.63;;;;;;;4.24;90.42;99069.52;1793664;79;21068;-71
2021/03/23 10:45:29;;;;;;;4.10;2.30;;;;;;;4.04;90.95;99072.86;1815678;78;21008;-71
2021/03/23 10:48:08;;;;;;;3.77;2.30;;;;;;;3.89;91.23;99062.34;1815525;78;21025;-71
2021/03/23 10:50:39;;;;;;;4.83;2.40;;;;;;;3.85;91.58;99063.65;1820722;78;21541;-68
2021/03/23 10:53:20;;;;;;;2.33;2.13;;;;;;;3.83;92.33;99065.13;1821233;78;22317;-70
2021/03/23 10:55:51;;;;;;;6.45;2.58;;;;;;;3.83;93.31;99058.45;1821535;78;21005;-70
2021/03/23 10:58:32;;;;;;;3.63;2.47;;;;;;;3.85;92.60;99051.61;1807827;78;21029;-71
2021/03/23 11:01:17;;;;;;;2.93;1.77;;;;;;;3.88;93.09;99057.97;1794668;78;21589;-70
2021/03/23 11:03:46;;;;;;;3.17;2.17;;;;;;;3.98;93.85;99054.73;1781355;80;21001;-68
2021/03/23 11:06:34;;;;;;;0.80;0.80;;;;;;;4.16;93.06;99055.59;1796885;78;22146;-70
2021/03/23 11:09:07;;;;;;;4.03;1.93;;;;;;;4.42;92.94;99053.94;1788461;78;21013;-72
2021/03/23 11:11:36;;;;;;;5.30;2.93;;;;;;;4.75;90.60;99059.03;1787752;78;20989;-69
2021/03/23 11:14:04;;;;;;;2.10;1.90;;;;;;;4.88;85.86;99058.09;1807712;79;21052;-70
2021/03/23 11:16:35;;;;;;;3.10;1.60;;;;;;;4.98;83.06;99059.84;1782129;79;20938;-72
2021/03/23 11:19:26;;;;;;;3.57;1.53;;;;;;;4.97;79.22;99047.43;1792164;79;21271;-76
2021/03/23 11:21:51;;;;;;;2.67;2.00;;;;;;;4.98;78.89;99042.42;1813902;79;21005;-71
2021/03/23 11:24:18;;;;;;;4.57;1.73;;;;;;;5.15;79.26;99045.50;1797938;79;21155;-71
2021/03/23 11:26:48;;;;;;;5.63;1.70;;;;;;;5.24;77.68;99046.38;1795788;79;21649;-72
2021/03/23 11:29:18;;;;;;;3.13;2.20;;;;;;;4.98;70.71;99036.56;1788064;79;21770;-70
2021/03/23 11:31:46;;;;;;;0.97;0.97;;;;;;;4.67;73.69;99041.05;1789875;78;22093;-70
2021/03/23 11:34:14;;;;;;;1.53;1.43;;;;;;;4.58;75.68;99042.00;1768784;79;21117;-69
2021/03/23 11:36:51;;;;;;;2.60;1.73;;;;;;;4.42;73.71;99048.59;1822374;77;21076;-70
2021/03/23 11:39:21;;;;;;;3.63;2.03;;;;;;;4.22;76.10;99050.11;1759214;81;20995;-69
2021/03/23 11:42:00;;;;;;;2.50;1.53;;;;;;;4.13;76.64;99053.20;1758124;81;20993;-68
2021/03/23 11:44:38;;;;;;;3.47;2.27;;;;;;;4.17;76.86;99053.23;1749159;81;21291;-69
2021/03/23 11:47:44;;;;;;;3.13;2.40;;;;;;;4.45;77.20;99047.77;1750519;80;21190;-68
2021/03/23 11:50:21;;;;;;;4.80;1.43;;;;;;;4.85;75.37;99042.83;1688978;83;21235;-69
2021/03/23 11:53:02;;;;;;;0.77;0.77;;;;;;;5.24;69.61;99035.17;1835148;76;26535;-78
2021/03/23 11:55:35;;;;;;;;;;;;;;;5.12;68.69;99030.59;1816639;77;20981;-79
2021/03/23 11:58:04;;;;;;;1.90;1.37;;;;;;;5.01;71.79;99050.13;1844492;77;21789;-80
2021/03/23 12:00:37;;;;;;;1.10;1.10;;;;;;;4.90;71.56;99042.69;1824633;78;21020;-85
2021/03/23 12:03:10;;;;;;;4.43;1.73;;;;;;;4.69;71.14;99047.59;1835094;76;21413;-76
2021/03/23 12:05:39;;;;;;;2.00;1.50;;;;;;;4.47;71.41;99041.77;1759697;80;20978;-75
2021/03/23 12:08:45;;;;;;;1.60;1.27;;;;;;;4.46;74.75;99049.95;1839677;77;20933;-76
2021/03/23 12:11:37;;;;;;;0.87;0.87;;;;;;;4.55;74.90;99044.98;1850858;77;21186;-73
2021/03/23 12:14:41;;;;;;;7.20;2.53;;;;;;;4.55;75.01;99037.81;1821988;78;20998;-74
2021/03/23 12:17:12;;;;;;;1.60;1.10;;;;;;;4.70;74.83;99028.70;1821851;78;21008;-73
2021/03/23 12:19:49;;;;;;;1.73;1.63;;;;;;;4.55;76.31;99019.08;1782618;80;21608;-74
2021/03/23 12:22:21;;;;;;;1.63;1.53;;;;;;;4.47;78.35;99025.70;1800934;77;21518;-76